sensor_id;sensor_type;location;lat;lon;timestamp;temperature;humidity
9057;DHT22;4563;54.756;9.400;2023-08-20T00:01:12;21.90;79.20
9057;DHT22;4563;54.756;9.400;2023-08-20T00:03:41;21.80;79.20
9057;DHT22;4563;54.756;9.400;2023-08-20T00:06:09;21.80;79.20
9057;DHT22;4563;54.756;9.400;2023-08-20T00:08:36;21.80;79.20
9057;DHT22;4563;54.756;9.400;2023-08-20T00:11:03;21.70;79.10
9057;DHT22;4563;54.756;9.400;2023-08-20T00:13:32;21.70;79.10
9057;DHT22;4563;54.756;9.400;2023-08-20T00:15:59;21.70;79.10
9057;DHT22;4563;54.756;9.400;2023-08-20T00:18:26;21.70;79.10
9057;DHT22;4563;54.756;9.400;2023-08-20T00:20:54;21.60;79.20
9057;DHT22;4563;54.756;9.400;2023-08-20T00:23:21;21.60;79.30
9057;DHT22;4563;54.756;9.400;2023-08-20T00:25:48;21.50;79.30
9057;DHT22;4563;54.756;9.400;2023-08-20T00:28:15;21.50;79.30
9057;DHT22;4563;54.756;9.400;2023-08-20T00:30:43;21.50;79.30
9057;DHT22;4563;54.756;9.400;2023-08-20T00:33:10;21.50;79.40
9057;DHT22;4563;54.756;9.400;2023-08-20T00:35:37;21.40;79.30
9057;DHT22;4563;54.756;9.400;2023-08-20T00:38:05;21.40;79.40
9057;DHT22;4563;54.756;9.400;2023-08-20T00:40:31;21.40;79.40
9057;DHT22;4563;54.756;9.400;2023-08-20T00:42:58;21.40;79.50
9057;DHT22;4563;54.756;9.400;2023-08-20T00:45:26;21.40;79.60
9057;DHT22;4563;54.756;9.400;2023-08-20T00:47:55;21.30;79.60
9057;DHT22;4563;54.756;9.400;2023-08-20T00:50:23;21.30;79.50
9057;DHT22;4563;54.756;9.400;2023-08-20T00:52:50;21.30;79.60
9057;DHT22;4563;54.756;9.400;2023-08-20T00:55:17;21.30;79.70
9057;DHT22;4563;54.756;9.400;2023-08-20T00:57:43;21.30;79.70
9057;DHT22;4563;54.756;9.400;2023-08-20T01:00:11;21.20;79.60
9057;DHT22;4563;54.756;9.400;2023-08-20T01:02:39;21.20;79.70
9057;DHT22;4563;54.756;9.400;2023-08-20T01:05:10;21.20;79.70
9057;DHT22;4563;54.756;9.400;2023-08-20T01:07:58;21.20;79.70
9057;DHT22;4563;54.756;9.400;2023-08-20T01:10:33;21.20;79.80
9057;DHT22;4563;54.756;9.400;2023-08-20T01:13:01;21.10;79.70
9057;DHT22;4563;54.756;9.400;2023-08-20T01:15:29;21.10;79.70
9057;DHT22;4563;54.756;9.400;2023-08-20T01:17:55;21.10;79.70
9057;DHT22;4563;54.756;9.400;2023-08-20T01:20:27;21.10;79.70
9057;DHT22;4563;54.756;9.400;2023-08-20T01:23:15;21.10;79.80
9057;DHT22;4563;54.756;9.400;2023-08-20T01:25:55;21.10;79.80
9057;DHT22;4563;54.756;9.400;2023-08-20T01:28:28;21.00;79.70
9057;DHT22;4563;54.756;9.400;2023-08-20T01:30:57;21.00;79.80
9057;DHT22;4563;54.756;9.400;2023-08-20T01:33:24;21.00;79.80
9057;DHT22;4563;54.756;9.400;2023-08-20T01:35:52;21.00;80.40
9057;DHT22;4563;54.756;9.400;2023-08-20T01:38:19;21.00;79.70
9057;DHT22;4563;54.756;9.400;2023-08-20T01:40:47;21.00;79.70
9057;DHT22;4563;54.756;9.400;2023-08-20T01:43:14;21.00;79.60
9057;DHT22;4563;54.756;9.400;2023-08-20T01:45:43;20.90;79.20
9057;DHT22;4563;54.756;9.400;2023-08-20T01:48:10;20.90;79.10
9057;DHT22;4563;54.756;9.400;2023-08-20T01:50:37;20.90;79.00
9057;DHT22;4563;54.756;9.400;2023-08-20T01:53:04;20.90;79.00
9057;DHT22;4563;54.756;9.400;2023-08-20T01:55:31;20.80;78.80
9057;DHT22;4563;54.756;9.400;2023-08-20T01:57:57;20.80;78.80
9057;DHT22;4563;54.756;9.400;2023-08-20T02:00:24;20.80;78.90
9057;DHT22;4563;54.756;9.400;2023-08-20T02:02:53;20.80;78.90
9057;DHT22;4563;54.756;9.400;2023-08-20T02:05:20;20.70;78.70
9057;DHT22;4563;54.756;9.400;2023-08-20T02:07:47;20.70;78.70
9057;DHT22;4563;54.756;9.400;2023-08-20T02:10:14;20.70;78.60
9057;DHT22;4563;54.756;9.400;2023-08-20T02:12:41;20.60;78.60
9057;DHT22;4563;54.756;9.400;2023-08-20T02:15:09;20.60;78.60
9057;DHT22;4563;54.756;9.400;2023-08-20T02:17:36;20.60;78.70
9057;DHT22;4563;54.756;9.400;2023-08-20T02:20:06;20.50;78.50
9057;DHT22;4563;54.756;9.400;2023-08-20T02:22:35;20.50;78.50
9057;DHT22;4563;54.756;9.400;2023-08-20T02:25:02;20.50;78.50
9057;DHT22;4563;54.756;9.400;2023-08-20T02:27:29;20.50;78.50
9057;DHT22;4563;54.756;9.400;2023-08-20T02:29:55;20.40;78.40
9057;DHT22;4563;54.756;9.400;2023-08-20T02:32:22;20.40;78.40
9057;DHT22;4563;54.756;9.400;2023-08-20T02:34:50;20.40;78.30
9057;DHT22;4563;54.756;9.400;2023-08-20T02:37:18;20.40;78.20
9057;DHT22;4563;54.756;9.400;2023-08-20T02:39:45;20.40;78.30
9057;DHT22;4563;54.756;9.400;2023-08-20T02:42:11;20.30;78.30
9057;DHT22;4563;54.756;9.400;2023-08-20T02:44:38;20.30;78.30
9057;DHT22;4563;54.756;9.400;2023-08-20T02:47:08;20.30;78.40
9057;DHT22;4563;54.756;9.400;2023-08-20T02:49:35;20.20;78.30
9057;DHT22;4563;54.756;9.400;2023-08-20T02:52:02;20.20;78.40
9057;DHT22;4563;54.756;9.400;2023-08-20T02:54:30;20.20;78.50
9057;DHT22;4563;54.756;9.400;2023-08-20T02:56:58;20.20;78.70
9057;DHT22;4563;54.756;9.400;2023-08-20T02:59:25;20.20;78.80
9057;DHT22;4563;54.756;9.400;2023-08-20T03:01:52;20.10;78.70
9057;DHT22;4563;54.756;9.400;2023-08-20T03:04:19;20.10;78.80
9057;DHT22;4563;54.756;9.400;2023-08-20T03:06:46;20.10;78.90
9057;DHT22;4563;54.756;9.400;2023-08-20T03:09:12;20.10;79.00
9057;DHT22;4563;54.756;9.400;2023-08-20T03:11:41;20.10;79.20
9057;DHT22;4563;54.756;9.400;2023-08-20T03:14:08;20.10;79.30
9057;DHT22;4563;54.756;9.400;2023-08-20T03:16:35;20.10;79.40
9057;DHT22;4563;54.756;9.400;2023-08-20T03:19:02;20.00;79.50
9057;DHT22;4563;54.756;9.400;2023-08-20T03:21:29;20.10;79.60
9057;DHT22;4563;54.756;9.400;2023-08-20T03:23:56;20.00;79.60
9057;DHT22;4563;54.756;9.400;2023-08-20T03:26:22;20.00;79.70
9057;DHT22;4563;54.756;9.400;2023-08-20T03:28:51;20.00;79.70
9057;DHT22;4563;54.756;9.400;2023-08-20T03:31:17;20.00;79.70
9057;DHT22;4563;54.756;9.400;2023-08-20T03:33:44;20.00;79.80
9057;DHT22;4563;54.756;9.400;2023-08-20T03:36:11;20.00;79.90
9057;DHT22;4563;54.756;9.400;2023-08-20T03:38:38;20.00;79.90
9057;DHT22;4563;54.756;9.400;2023-08-20T03:41:05;20.00;80.00
9057;DHT22;4563;54.756;9.400;2023-08-20T03:43:32;20.00;80.10
9057;DHT22;4563;54.756;9.400;2023-08-20T03:46:00;19.90;80.00
9057;DHT22;4563;54.756;9.400;2023-08-20T03:48:27;19.90;80.00
9057;DHT22;4563;54.756;9.400;2023-08-20T03:50:54;20.00;80.20
9057;DHT22;4563;54.756;9.400;2023-08-20T03:53:21;19.90;80.20
9057;DHT22;4563;54.756;9.400;2023-08-20T03:55:48;20.00;80.30
9057;DHT22;4563;54.756;9.400;2023-08-20T03:58:15;19.90;80.20
9057;DHT22;4563;54.756;9.400;2023-08-20T04:00:43;19.90;80.20
9057;DHT22;4563;54.756;9.400;2023-08-20T04:03:11;19.90;80.30
9057;DHT22;4563;54.756;9.400;2023-08-20T04:05:38;19.90;80.30
9057;DHT22;4563;54.756;9.400;2023-08-20T04:08:05;19.90;80.30
9057;DHT22;4563;54.756;9.400;2023-08-20T04:10:32;19.90;80.30
9057;DHT22;4563;54.756;9.400;2023-08-20T04:12:59;19.90;80.30
9057;DHT22;4563;54.756;9.400;2023-08-20T04:15:26;19.90;80.50
9057;DHT22;4563;54.756;9.400;2023-08-20T04:17:53;19.90;80.50
9057;DHT22;4563;54.756;9.400;2023-08-20T04:20:21;19.90;80.40
9057;DHT22;4563;54.756;9.400;2023-08-20T04:22:48;19.90;80.50
9057;DHT22;4563;54.756;9.400;2023-08-20T04:25:15;19.80;80.30
9057;DHT22;4563;54.756;9.400;2023-08-20T04:27:42;19.80;80.20
9057;DHT22;4563;54.756;9.400;2023-08-20T04:30:10;19.80;80.30
9057;DHT22;4563;54.756;9.400;2023-08-20T04:32:37;19.80;80.40
9057;DHT22;4563;54.756;9.400;2023-08-20T04:35:04;19.80;80.50
9057;DHT22;4563;54.756;9.400;2023-08-20T04:37:32;19.80;80.60
9057;DHT22;4563;54.756;9.400;2023-08-20T04:39:59;19.80;80.70
9057;DHT22;4563;54.756;9.400;2023-08-20T04:42:30;19.80;80.90
9057;DHT22;4563;54.756;9.400;2023-08-20T04:44:56;19.80;81.00
9057;DHT22;4563;54.756;9.400;2023-08-20T04:47:23;19.80;81.00
9057;DHT22;4563;54.756;9.400;2023-08-20T04:49:50;19.80;81.30
9057;DHT22;4563;54.756;9.400;2023-08-20T04:52:17;19.90;81.70
9057;DHT22;4563;54.756;9.400;2023-08-20T04:54:47;19.90;82.00
9057;DHT22;4563;54.756;9.400;2023-08-20T04:57:14;19.80;82.10
9057;DHT22;4563;54.756;9.400;2023-08-20T04:59:41;19.90;82.50
9057;DHT22;4563;54.756;9.400;2023-08-20T05:02:10;19.90;82.70
9057;DHT22;4563;54.756;9.400;2023-08-20T05:04:37;19.90;82.90
9057;DHT22;4563;54.756;9.400;2023-08-20T05:07:04;19.90;83.10
9057;DHT22;4563;54.756;9.400;2023-08-20T05:09:32;19.90;83.30
9057;DHT22;4563;54.756;9.400;2023-08-20T05:12:00;20.00;83.50
9057;DHT22;4563;54.756;9.400;2023-08-20T05:14:27;20.00;83.60
9057;DHT22;4563;54.756;9.400;2023-08-20T05:16:54;19.90;83.50
9057;DHT22;4563;54.756;9.400;2023-08-20T05:19:21;20.00;83.60
9057;DHT22;4563;54.756;9.400;2023-08-20T05:21:48;20.00;83.80
9057;DHT22;4563;54.756;9.400;2023-08-20T05:24:15;20.00;83.80
9057;DHT22;4563;54.756;9.400;2023-08-20T05:26:41;20.10;83.90
9057;DHT22;4563;54.756;9.400;2023-08-20T05:29:10;20.10;83.90
9057;DHT22;4563;54.756;9.400;2023-08-20T05:31:38;20.10;83.80
9057;DHT22;4563;54.756;9.400;2023-08-20T05:34:05;20.10;83.90
9057;DHT22;4563;54.756;9.400;2023-08-20T05:36:31;20.10;83.70
9057;DHT22;4563;54.756;9.400;2023-08-20T05:38:58;20.10;83.80
9057;DHT22;4563;54.756;9.400;2023-08-20T05:41:25;20.10;83.70
9057;DHT22;4563;54.756;9.400;2023-08-20T05:43:52;20.10;83.70
9057;DHT22;4563;54.756;9.400;2023-08-20T05:46:20;20.10;83.60
9057;DHT22;4563;54.756;9.400;2023-08-20T05:48:47;20.10;83.70
9057;DHT22;4563;54.756;9.400;2023-08-20T05:51:14;20.10;83.70
9057;DHT22;4563;54.756;9.400;2023-08-20T05:53:40;20.10;83.70
9057;DHT22;4563;54.756;9.400;2023-08-20T05:56:08;20.10;83.60
9057;DHT22;4563;54.756;9.400;2023-08-20T05:58:35;20.10;83.60
9057;DHT22;4563;54.756;9.400;2023-08-20T06:01:02;20.10;83.60
9057;DHT22;4563;54.756;9.400;2023-08-20T06:03:30;20.10;83.50
9057;DHT22;4563;54.756;9.400;2023-08-20T06:05:57;20.10;83.60
9057;DHT22;4563;54.756;9.400;2023-08-20T06:08:24;20.10;83.60
9057;DHT22;4563;54.756;9.400;2023-08-20T06:10:51;20.10;83.60
9057;DHT22;4563;54.756;9.400;2023-08-20T06:13:18;20.10;83.60
9057;DHT22;4563;54.756;9.400;2023-08-20T06:15:45;20.10;83.70
9057;DHT22;4563;54.756;9.400;2023-08-20T06:18:12;20.10;83.90
9057;DHT22;4563;54.756;9.400;2023-08-20T06:20:40;20.20;84.00
9057;DHT22;4563;54.756;9.400;2023-08-20T06:23:07;20.20;84.20
9057;DHT22;4563;54.756;9.400;2023-08-20T06:25:34;20.10;84.20
9057;DHT22;4563;54.756;9.400;2023-08-20T06:28:03;20.20;84.50
9057;DHT22;4563;54.756;9.400;2023-08-20T06:30:30;20.20;84.60
9057;DHT22;4563;54.756;9.400;2023-08-20T06:32:59;20.30;84.80
9057;DHT22;4563;54.756;9.400;2023-08-20T06:35:26;20.30;85.00
9057;DHT22;4563;54.756;9.400;2023-08-20T06:37:57;20.30;85.10
9057;DHT22;4563;54.756;9.400;2023-08-20T06:40:23;20.30;85.10
9057;DHT22;4563;54.756;9.400;2023-08-20T06:42:50;20.40;85.30
9057;DHT22;4563;54.756;9.400;2023-08-20T06:45:17;20.40;85.40
9057;DHT22;4563;54.756;9.400;2023-08-20T06:47:44;20.40;85.50
9057;DHT22;4563;54.756;9.400;2023-08-20T06:50:11;20.40;85.70
9057;DHT22;4563;54.756;9.400;2023-08-20T06:52:38;20.50;85.80
9057;DHT22;4563;54.756;9.400;2023-08-20T06:55:07;20.50;86.00
9057;DHT22;4563;54.756;9.400;2023-08-20T06:57:34;20.50;86.20
9057;DHT22;4563;54.756;9.400;2023-08-20T07:00:01;20.60;86.40
9057;DHT22;4563;54.756;9.400;2023-08-20T07:02:29;20.60;86.50
9057;DHT22;4563;54.756;9.400;2023-08-20T07:04:55;20.60;86.70
9057;DHT22;4563;54.756;9.400;2023-08-20T07:07:22;20.70;87.10
9057;DHT22;4563;54.756;9.400;2023-08-20T07:09:49;20.70;86.90
9057;DHT22;4563;54.756;9.400;2023-08-20T07:12:17;20.70;86.90
9057;DHT22;4563;54.756;9.400;2023-08-20T07:14:45;20.80;86.90
9057;DHT22;4563;54.756;9.400;2023-08-20T07:17:12;20.80;86.80
9057;DHT22;4563;54.756;9.400;2023-08-20T07:19:41;20.80;86.80
9057;DHT22;4563;54.756;9.400;2023-08-20T07:22:08;20.80;86.60
9057;DHT22;4563;54.756;9.400;2023-08-20T07:24:38;20.90;86.70
9057;DHT22;4563;54.756;9.400;2023-08-20T07:27:07;20.80;86.60
9057;DHT22;4563;54.756;9.400;2023-08-20T07:29:40;20.90;86.70
9057;DHT22;4563;54.756;9.400;2023-08-20T07:32:07;20.90;86.60
9057;DHT22;4563;54.756;9.400;2023-08-20T07:34:34;21.00;86.70
9057;DHT22;4563;54.756;9.400;2023-08-20T07:37:01;21.00;86.70
9057;DHT22;4563;54.756;9.400;2023-08-20T07:39:28;21.00;86.50
9057;DHT22;4563;54.756;9.400;2023-08-20T07:41:55;21.00;86.50
9057;DHT22;4563;54.756;9.400;2023-08-20T07:44:21;21.00;86.40
9057;DHT22;4563;54.756;9.400;2023-08-20T07:46:50;21.10;86.50
9057;DHT22;4563;54.756;9.400;2023-08-20T07:49:16;21.10;86.40
9057;DHT22;4563;54.756;9.400;2023-08-20T07:51:43;21.20;86.50
9057;DHT22;4563;54.756;9.400;2023-08-20T07:54:10;21.20;86.50
9057;DHT22;4563;54.756;9.400;2023-08-20T07:56:37;21.20;86.50
9057;DHT22;4563;54.756;9.400;2023-08-20T07:59:05;21.20;86.50
9057;DHT22;4563;54.756;9.400;2023-08-20T08:01:32;21.30;86.50
9057;DHT22;4563;54.756;9.400;2023-08-20T08:04:00;21.20;86.40
9057;DHT22;4563;54.756;9.400;2023-08-20T08:06:27;21.30;86.50
9057;DHT22;4563;54.756;9.400;2023-08-20T08:08:54;21.30;86.60
9057;DHT22;4563;54.756;9.400;2023-08-20T08:11:21;21.40;86.70
9057;DHT22;4563;54.756;9.400;2023-08-20T08:13:48;21.40;86.70
9057;DHT22;4563;54.756;9.400;2023-08-20T08:16:14;21.40;86.70
9057;DHT22;4563;54.756;9.400;2023-08-20T08:18:42;21.50;86.80
9057;DHT22;4563;54.756;9.400;2023-08-20T08:21:10;21.60;87.20
9057;DHT22;4563;54.756;9.400;2023-08-20T08:23:37;21.60;87.30
9057;DHT22;4563;54.756;9.400;2023-08-20T08:26:04;21.70;87.30
9057;DHT22;4563;54.756;9.400;2023-08-20T08:28:31;21.70;87.10
9057;DHT22;4563;54.756;9.400;2023-08-20T08:30:57;21.80;87.00
9057;DHT22;4563;54.756;9.400;2023-08-20T08:33:24;21.90;87.00
9057;DHT22;4563;54.756;9.400;2023-08-20T08:35:51;21.90;86.60
9057;DHT22;4563;54.756;9.400;2023-08-20T08:38:19;22.00;86.30
9057;DHT22;4563;54.756;9.400;2023-08-20T08:40:46;22.10;86.00
9057;DHT22;4563;54.756;9.400;2023-08-20T08:43:13;22.20;86.10
9057;DHT22;4563;54.756;9.400;2023-08-20T08:45:45;22.20;85.70
9057;DHT22;4563;54.756;9.400;2023-08-20T08:48:13;22.30;85.50
9057;DHT22;4563;54.756;9.400;2023-08-20T08:50:40;22.40;85.40
9057;DHT22;4563;54.756;9.400;2023-08-20T08:53:08;22.50;85.30
9057;DHT22;4563;54.756;9.400;2023-08-20T08:55:36;22.60;85.30
9057;DHT22;4563;54.756;9.400;2023-08-20T08:58:03;22.70;84.60
9057;DHT22;4563;54.756;9.400;2023-08-20T09:00:30;22.70;84.10
9057;DHT22;4563;54.756;9.400;2023-08-20T09:02:59;22.90;84.20
9057;DHT22;4563;54.756;9.400;2023-08-20T09:05:26;23.00;83.70
9057;DHT22;4563;54.756;9.400;2023-08-20T09:07:55;23.10;83.50
9057;DHT22;4563;54.756;9.400;2023-08-20T09:10:25;23.20;83.50
9057;DHT22;4563;54.756;9.400;2023-08-20T09:12:54;23.30;83.10
9057;DHT22;4563;54.756;9.400;2023-08-20T09:15:22;23.40;82.70
9057;DHT22;4563;54.756;9.400;2023-08-20T09:17:56;23.50;82.60
9057;DHT22;4563;54.756;9.400;2023-08-20T09:20:34;23.60;82.40
9057;DHT22;4563;54.756;9.400;2023-08-20T09:23:00;23.80;82.30
9057;DHT22;4563;54.756;9.400;2023-08-20T09:25:27;24.00;81.40
9057;DHT22;4563;54.756;9.400;2023-08-20T09:27:55;24.10;81.30
9057;DHT22;4563;54.756;9.400;2023-08-20T09:30:22;24.30;81.30
9057;DHT22;4563;54.756;9.400;2023-08-20T09:33:03;24.50;81.40
9057;DHT22;4563;54.756;9.400;2023-08-20T09:35:31;24.60;80.90
9057;DHT22;4563;54.756;9.400;2023-08-20T09:38:01;24.80;79.50
9057;DHT22;4563;54.756;9.400;2023-08-20T09:40:28;25.10;79.10
9057;DHT22;4563;54.756;9.400;2023-08-20T09:42:57;25.20;78.50
9057;DHT22;4563;54.756;9.400;2023-08-20T09:45:24;25.30;77.40
9057;DHT22;4563;54.756;9.400;2023-08-20T09:47:55;25.50;77.20
9057;DHT22;4563;54.756;9.400;2023-08-20T09:50:22;25.60;76.50
9057;DHT22;4563;54.756;9.400;2023-08-20T09:52:57;25.70;75.70
9057;DHT22;4563;54.756;9.400;2023-08-20T09:55:29;25.80;75.00
9057;DHT22;4563;54.756;9.400;2023-08-20T09:57:58;25.90;74.60
9057;DHT22;4563;54.756;9.400;2023-08-20T10:00:25;26.00;74.20
9057;DHT22;4563;54.756;9.400;2023-08-20T10:02:54;26.10;74.20
9057;DHT22;4563;54.756;9.400;2023-08-20T10:05:23;26.20;73.90
9057;DHT22;4563;54.756;9.400;2023-08-20T10:07:50;26.40;73.20
9057;DHT22;4563;54.756;9.400;2023-08-20T10:10:18;26.60;72.70
9057;DHT22;4563;54.756;9.400;2023-08-20T10:12:45;26.70;72.50
9057;DHT22;4563;54.756;9.400;2023-08-20T10:15:15;26.90;71.60
9057;DHT22;4563;54.756;9.400;2023-08-20T10:17:44;27.10;71.20
9057;DHT22;4563;54.756;9.400;2023-08-20T10:20:13;27.30;70.30
9057;DHT22;4563;54.756;9.400;2023-08-20T10:22:43;27.40;69.90
9057;DHT22;4563;54.756;9.400;2023-08-20T10:25:10;27.60;69.20
9057;DHT22;4563;54.756;9.400;2023-08-20T10:27:39;27.70;69.10
9057;DHT22;4563;54.756;9.400;2023-08-20T10:30:08;27.80;68.90
9057;DHT22;4563;54.756;9.400;2023-08-20T10:32:50;27.90;67.50
9057;DHT22;4563;54.756;9.400;2023-08-20T10:35:22;28.00;68.30
9057;DHT22;4563;54.756;9.400;2023-08-20T10:38:01;28.10;66.30
9057;DHT22;4563;54.756;9.400;2023-08-20T10:40:49;28.20;67.70
9057;DHT22;4563;54.756;9.400;2023-08-20T10:43:29;28.20;68.70
9057;DHT22;4563;54.756;9.400;2023-08-20T10:46:06;28.30;66.50
9057;DHT22;4563;54.756;9.400;2023-08-20T10:48:36;28.40;65.30
9057;DHT22;4563;54.756;9.400;2023-08-20T10:51:10;28.40;64.70
9057;DHT22;4563;54.756;9.400;2023-08-20T10:53:37;28.50;66.00
9057;DHT22;4563;54.756;9.400;2023-08-20T10:56:09;28.60;63.80
9057;DHT22;4563;54.756;9.400;2023-08-20T10:58:38;28.70;64.20
9057;DHT22;4563;54.756;9.400;2023-08-20T11:01:16;28.90;63.50
9057;DHT22;4563;54.756;9.400;2023-08-20T11:03:46;29.10;66.20
9057;DHT22;4563;54.756;9.400;2023-08-20T11:06:14;29.20;62.60
9057;DHT22;4563;54.756;9.400;2023-08-20T11:08:42;29.30;61.10
9057;DHT22;4563;54.756;9.400;2023-08-20T11:11:11;29.50;61.00
9057;DHT22;4563;54.756;9.400;2023-08-20T11:13:38;29.60;61.00
9057;DHT22;4563;54.756;9.400;2023-08-20T11:16:07;29.70;60.30
9057;DHT22;4563;54.756;9.400;2023-08-20T11:18:35;29.80;60.50
9057;DHT22;4563;54.756;9.400;2023-08-20T11:21:03;29.90;58.90
9057;DHT22;4563;54.756;9.400;2023-08-20T11:23:31;30.00;59.40
9057;DHT22;4563;54.756;9.400;2023-08-20T11:25:58;30.00;58.20
9057;DHT22;4563;54.756;9.400;2023-08-20T11:28:26;30.10;58.20
9057;DHT22;4563;54.756;9.400;2023-08-20T11:30:54;30.10;57.30
9057;DHT22;4563;54.756;9.400;2023-08-20T11:33:21;30.20;57.00
9057;DHT22;4563;54.756;9.400;2023-08-20T11:35:48;30.20;57.20
9057;DHT22;4563;54.756;9.400;2023-08-20T11:38:17;30.30;56.30
9057;DHT22;4563;54.756;9.400;2023-08-20T11:40:43;30.40;56.70
9057;DHT22;4563;54.756;9.400;2023-08-20T11:43:11;30.50;56.30
9057;DHT22;4563;54.756;9.400;2023-08-20T11:45:45;30.50;56.00
9057;DHT22;4563;54.756;9.400;2023-08-20T11:48:11;30.60;58.90
9057;DHT22;4563;54.756;9.400;2023-08-20T11:50:39;30.70;55.90
9057;DHT22;4563;54.756;9.400;2023-08-20T11:53:06;30.80;56.00
9057;DHT22;4563;54.756;9.400;2023-08-20T11:55:35;30.80;55.40
9057;DHT22;4563;54.756;9.400;2023-08-20T11:58:01;30.90;55.30
9057;DHT22;4563;54.756;9.400;2023-08-20T12:00:31;31.00;55.30
9057;DHT22;4563;54.756;9.400;2023-08-20T12:02:58;31.00;55.50
9057;DHT22;4563;54.756;9.400;2023-08-20T12:05:27;31.00;54.20
9057;DHT22;4563;54.756;9.400;2023-08-20T12:07:57;31.10;54.60
9057;DHT22;4563;54.756;9.400;2023-08-20T12:10:25;31.10;55.50
9057;DHT22;4563;54.756;9.400;2023-08-20T12:12:54;31.20;54.70
9057;DHT22;4563;54.756;9.400;2023-08-20T12:15:22;31.20;54.70
9057;DHT22;4563;54.756;9.400;2023-08-20T12:17:59;31.20;54.40
9057;DHT22;4563;54.756;9.400;2023-08-20T12:20:28;31.30;58.40
9057;DHT22;4563;54.756;9.400;2023-08-20T12:22:58;31.30;54.50
9057;DHT22;4563;54.756;9.400;2023-08-20T12:25:25;31.40;55.20
9057;DHT22;4563;54.756;9.400;2023-08-20T12:27:52;31.30;53.80
9057;DHT22;4563;54.756;9.400;2023-08-20T12:30:20;31.30;54.00
9057;DHT22;4563;54.756;9.400;2023-08-20T12:32:47;31.30;54.00
9057;DHT22;4563;54.756;9.400;2023-08-20T12:35:13;31.30;53.80
9057;DHT22;4563;54.756;9.400;2023-08-20T12:37:40;31.30;53.20
9057;DHT22;4563;54.756;9.400;2023-08-20T12:40:08;31.30;53.80
9057;DHT22;4563;54.756;9.400;2023-08-20T12:42:36;31.30;54.00
9057;DHT22;4563;54.756;9.400;2023-08-20T12:45:05;31.20;53.60
9057;DHT22;4563;54.756;9.400;2023-08-20T12:47:34;31.20;53.60
9057;DHT22;4563;54.756;9.400;2023-08-20T12:50:00;31.10;53.80
9057;DHT22;4563;54.756;9.400;2023-08-20T12:52:28;31.10;53.50
9057;DHT22;4563;54.756;9.400;2023-08-20T12:54:55;31.00;53.00
9057;DHT22;4563;54.756;9.400;2023-08-20T12:57:22;31.00;52.80
9057;DHT22;4563;54.756;9.400;2023-08-20T12:59:49;31.00;52.60
9057;DHT22;4563;54.756;9.400;2023-08-20T13:02:15;31.00;52.60
9057;DHT22;4563;54.756;9.400;2023-08-20T13:04:44;31.00;52.90
9057;DHT22;4563;54.756;9.400;2023-08-20T13:07:12;30.90;53.70
9057;DHT22;4563;54.756;9.400;2023-08-20T13:09:40;30.80;53.60
9057;DHT22;4563;54.756;9.400;2023-08-20T13:12:09;30.80;53.60
9057;DHT22;4563;54.756;9.400;2023-08-20T13:14:38;30.80;54.20
9057;DHT22;4563;54.756;9.400;2023-08-20T13:17:06;30.80;54.30
9057;DHT22;4563;54.756;9.400;2023-08-20T13:19:33;30.70;54.10
9057;DHT22;4563;54.756;9.400;2023-08-20T13:22:01;30.60;54.70
9057;DHT22;4563;54.756;9.400;2023-08-20T13:24:28;30.60;54.50
9057;DHT22;4563;54.756;9.400;2023-08-20T13:26:55;30.60;54.40
9057;DHT22;4563;54.756;9.400;2023-08-20T13:29:22;30.50;54.20
9057;DHT22;4563;54.756;9.400;2023-08-20T13:31:49;30.50;53.90
9057;DHT22;4563;54.756;9.400;2023-08-20T13:34:15;30.40;53.50
9057;DHT22;4563;54.756;9.400;2023-08-20T13:36:42;30.40;53.90
9057;DHT22;4563;54.756;9.400;2023-08-20T13:39:10;30.30;54.10
9057;DHT22;4563;54.756;9.400;2023-08-20T13:41:42;30.20;54.60
9057;DHT22;4563;54.756;9.400;2023-08-20T13:44:08;30.20;54.20
9057;DHT22;4563;54.756;9.400;2023-08-20T13:46:36;30.20;54.10
9057;DHT22;4563;54.756;9.400;2023-08-20T13:49:03;30.00;53.70
9057;DHT22;4563;54.756;9.400;2023-08-20T13:51:30;30.00;53.60
9057;DHT22;4563;54.756;9.400;2023-08-20T13:53:57;30.00;54.70
9057;DHT22;4563;54.756;9.400;2023-08-20T13:56:26;29.90;54.50
9057;DHT22;4563;54.756;9.400;2023-08-20T13:58:53;29.80;54.30
9057;DHT22;4563;54.756;9.400;2023-08-20T14:01:19;29.70;54.50
9057;DHT22;4563;54.756;9.400;2023-08-20T14:03:46;29.70;54.40
9057;DHT22;4563;54.756;9.400;2023-08-20T14:06:13;29.60;54.50
9057;DHT22;4563;54.756;9.400;2023-08-20T14:08:40;29.50;54.60
9057;DHT22;4563;54.756;9.400;2023-08-20T14:11:07;29.50;54.70
9057;DHT22;4563;54.756;9.400;2023-08-20T14:13:35;29.40;55.30
9057;DHT22;4563;54.756;9.400;2023-08-20T14:16:02;29.30;55.00
9057;DHT22;4563;54.756;9.400;2023-08-20T14:18:29;29.20;54.60
9057;DHT22;4563;54.756;9.400;2023-08-20T14:20:55;29.20;55.50
9057;DHT22;4563;54.756;9.400;2023-08-20T14:23:23;29.10;54.90
9057;DHT22;4563;54.756;9.400;2023-08-20T14:25:53;29.00;55.20
9057;DHT22;4563;54.756;9.400;2023-08-20T14:28:20;29.00;55.50
9057;DHT22;4563;54.756;9.400;2023-08-20T14:30:48;28.90;55.60
9057;DHT22;4563;54.756;9.400;2023-08-20T14:33:16;28.80;54.60
9057;DHT22;4563;54.756;9.400;2023-08-20T14:35:43;28.80;54.70
9057;DHT22;4563;54.756;9.400;2023-08-20T14:38:10;28.70;55.40
9057;DHT22;4563;54.756;9.400;2023-08-20T14:40:38;28.60;56.00
9057;DHT22;4563;54.756;9.400;2023-08-20T14:43:06;28.60;56.70
9057;DHT22;4563;54.756;9.400;2023-08-20T14:45:33;28.50;55.90
9057;DHT22;4563;54.756;9.400;2023-08-20T14:48:01;28.50;55.90
9057;DHT22;4563;54.756;9.400;2023-08-20T14:50:28;28.40;56.10
9057;DHT22;4563;54.756;9.400;2023-08-20T14:52:55;28.30;56.10
9057;DHT22;4563;54.756;9.400;2023-08-20T14:55:22;28.20;56.20
9057;DHT22;4563;54.756;9.400;2023-08-20T14:57:49;28.20;56.70
9057;DHT22;4563;54.756;9.400;2023-08-20T15:00:15;28.20;56.70
9057;DHT22;4563;54.756;9.400;2023-08-20T15:02:42;28.10;56.20
9057;DHT22;4563;54.756;9.400;2023-08-20T15:05:11;28.10;56.70
9057;DHT22;4563;54.756;9.400;2023-08-20T15:07:38;28.00;56.40
9057;DHT22;4563;54.756;9.400;2023-08-20T15:10:05;27.90;56.40
9057;DHT22;4563;54.756;9.400;2023-08-20T15:12:33;27.90;56.10
9057;DHT22;4563;54.756;9.400;2023-08-20T15:15:00;27.90;56.80
9057;DHT22;4563;54.756;9.400;2023-08-20T15:17:27;27.80;56.90
9057;DHT22;4563;54.756;9.400;2023-08-20T15:19:54;27.70;56.80
9057;DHT22;4563;54.756;9.400;2023-08-20T15:22:22;27.70;57.00
9057;DHT22;4563;54.756;9.400;2023-08-20T15:24:49;27.70;57.30
9057;DHT22;4563;54.756;9.400;2023-08-20T15:27:16;27.60;57.90
9057;DHT22;4563;54.756;9.400;2023-08-20T15:29:43;27.60;57.80
9057;DHT22;4563;54.756;9.400;2023-08-20T15:32:10;27.50;58.10
9057;DHT22;4563;54.756;9.400;2023-08-20T15:34:37;27.50;58.80
9057;DHT22;4563;54.756;9.400;2023-08-20T15:37:04;27.40;58.90
9057;DHT22;4563;54.756;9.400;2023-08-20T15:39:33;27.40;59.20
9057;DHT22;4563;54.756;9.400;2023-08-20T15:42:00;27.40;59.50
9057;DHT22;4563;54.756;9.400;2023-08-20T15:44:27;27.30;59.50
9057;DHT22;4563;54.756;9.400;2023-08-20T15:46:54;27.30;59.90
9057;DHT22;4563;54.756;9.400;2023-08-20T15:49:20;27.20;60.00
9057;DHT22;4563;54.756;9.400;2023-08-20T15:51:47;27.10;60.70
9057;DHT22;4563;54.756;9.400;2023-08-20T15:54:15;27.10;61.00
9057;DHT22;4563;54.756;9.400;2023-08-20T15:56:46;27.00;61.00
9057;DHT22;4563;54.756;9.400;2023-08-20T15:59:12;27.00;61.00
9057;DHT22;4563;54.756;9.400;2023-08-20T16:01:39;26.90;60.60
9057;DHT22;4563;54.756;9.400;2023-08-20T16:04:06;26.90;60.50
9057;DHT22;4563;54.756;9.400;2023-08-20T16:06:33;26.80;61.20